ENFL

Florø Airport

Florø, Norway
TAF ENFL 210800Z 2109/2113 25012KT 9999 -RADZ SCT008 BKN015 TEMPO 2109/2113 BKN008
Issued Valid From Valid To
Apr-21 @ 08:00 UTC
(2 hours ago)
Apr-21 @ 09:00 UTC
(46 minutes ago)
Apr-21 @ 13:00 UTC
(in 3 hours)
Apr-21 @ 09:00 to Apr-21 @ 13:00
TAF ENFL 210800Z 2109/2113 25012KT 9999 -RADZ SCT008 BKN015
Wind Visibility Clouds Conditions
250° at 12 knots 10,000+ meters
  • Scattered at 800' AGL
  • Broken at 1,500' AGL
  • Light Rain
  • Light Drizzle
Temporary Apr-21 @ 09:00 to Apr-21 @ 13:00
TEMPO 2109/2113 BKN008
Clouds
  • Broken at 800' AGL
TAF ENFL 210800Z 2109/2113 25012KT 9999 -RADZ SCT008 BKN015 TEMPO 2109/2113 BKN008
Issued Apr-21 @ 08:00 UTC
(2 hours ago)
Valid From Apr-21 @ 09:00 UTC
(46 minutes ago)
Valid To Apr-21 @ 13:00 UTC
(in 3 hours)
Apr-21 @ 09:00 - Apr-21 @ 13:00
Wind Visibility
250° at 12 knots 10,000+ meters
Clouds
  • Scattered at 800' AGL
  • Broken at 1,500' AGL
Conditions
  • Light Rain
  • Light Drizzle
Temporary Apr-21 @ 09:00 - Apr-21 @ 13:00
Clouds
  • Broken at 800' AGL